Brighton, MI

3:29 PM EDT on March 24, 2017 (GMT -0400)
Hunters Ridge | | Change Station

Elev 988 ft 42.58 °N, 83.77 °W | Updated 51 seconds ago

Mostly Cloudy
Mostly Cloudy
73.0 °F
Feels Like 77 °F
N
4.2
Wind Variable Wind from SW

Today
High -- | Low -- °F
--% Chance of Precip.
Yesterday
High -- | Low -- °F
Precip. -- in
Pressure 29.92 in
Visibility 10.0 miles
Clouds Mostly Cloudy 7500 ft
Heat Index 77 °F
Dew Point 50 °F
Humidity 45%
Rainfall 0.13 in
Snow Depth Not available.
7:30 AM 7:52 PM
Waning Crescent, 13% visible
METAR KOZW 241914Z AUTO 24010G18KT 10SM BKN075 22/09 A2992 RMK AO2 T02160092
Pressure 29.92 in
Visibility 10.0 miles
Clouds Mostly Cloudy 7500 ft
Heat Index 77 °F
Dew Point 50 °F
Humidity 45%
Rainfall 0.13 in
Snow Depth Not available.
7:30 AM 7:52 PM
Waning Crescent, 13% visible
METAR KOZW 241914Z AUTO 24010G18KT 10SM BKN075 22/09 A2992 RMK AO2 T02160092

Get Severe Weather Alerts

Thanks for signing up!

Be on the lookout for a verification email in your inbox.

You'll start receiving the daily forecast at 8 AM.

×

10-Day Weather Forecast

Almanac

Astronomy

Mar. 24, 2017 Rise Set
Actual Time
Civil Twilight
Nautical Twilight
Astronomical Twilight
Moon
Length of Visible Light
Length of Day
Tomorrow will be .
, % of the Moon is Illuminated

Today's Extremes

State Highs State Lows

Community

WunderPhotos

Upload Photos

1,962,540 photos uploaded!

WunderBlog® & News

Nearby

Air Quality

  Air Quality AQ Index Pollutant
Not available.

Snow Depth

Station Depth Elevation

Earthquake Activity

City Distance Mag. Time & Date
Minimum magnitude displayed is 2.5.

Earthquake Activity

City Distance Mag. Time & Date
Minimum magnitude displayed is 2.5.

Coastal Water Temperatures

Place Temperature

Stations

Nearby Weather Stations

Station Location Temp. Windchill Dew Point Humidity Wind Precip. Elev Updated Type
                   

Watches & Warnings

There are currently no watches in effect.